createdAt,value
2017-12-16T00:01:44.494Z,67.37
2017-12-16T00:04:12.011Z,61.92
2017-12-16T00:06:39.558Z,68.47
2017-12-16T00:09:07.056Z,64.03
2017-12-16T00:11:34.564Z,57.95
2017-12-16T00:14:02.099Z,59.08
2017-12-16T00:16:29.606Z,67.93
2017-12-16T00:19:00.758Z,65.90
2017-12-16T00:21:28.307Z,59.10
2017-12-16T00:23:55.819Z,57.10
2017-12-16T00:26:24.064Z,63.40
2017-12-16T00:28:51.557Z,66.87
2017-12-16T00:31:19.821Z,68.78
2017-12-16T00:33:48.089Z,64.12
2017-12-16T00:36:15.596Z,68.93
2017-12-16T00:38:43.069Z,69.93
2017-12-16T00:41:10.579Z,69.28
2017-12-16T00:43:38.871Z,72.28
2017-12-16T00:46:06.357Z,67.60
2017-12-16T00:48:33.892Z,69.97
2017-12-16T00:51:01.443Z,75.80
2017-12-16T00:53:29.008Z,70.10
2017-12-16T00:56:11.287Z,68.53
2017-12-16T00:58:38.837Z,76.18
2017-12-16T01:01:06.359Z,64.03
2017-12-16T01:03:33.860Z,65.75
2017-12-16T01:06:01.352Z,80.35
2017-12-16T01:08:28.902Z,80.35
2017-12-16T01:10:57.218Z,68.22
2017-12-16T01:13:24.736Z,73.10
2017-12-16T01:15:53.042Z,74.30
2017-12-16T01:18:20.526Z,78.03
2017-12-16T01:20:48.026Z,91.63
2017-12-16T01:23:16.310Z,92.55
2017-12-16T01:25:43.855Z,78.05
2017-12-16T01:28:12.123Z,79.78
2017-12-16T01:30:39.650Z,76.45
2017-12-16T01:33:07.251Z,82.78
2017-12-16T01:35:47.254Z,77.75
2017-12-16T01:38:26.540Z,69.62
2017-12-16T01:40:55.815Z,77.75
2017-12-16T01:43:23.298Z,78.47
2017-12-16T01:45:59.428Z,76.03
2017-12-16T01:48:26.931Z,80.87
2017-12-16T01:50:54.486Z,84.55
2017-12-16T01:53:21.974Z,80.78
2017-12-16T01:55:49.481Z,95.38
2017-12-16T01:58:17.759Z,87.35
2017-12-16T02:00:46.032Z,88.18
2017-12-16T02:03:13.543Z,96.57
2017-12-16T02:05:41.051Z,97.68
2017-12-16T02:08:09.367Z,84.53
2017-12-16T02:10:36.852Z,93.12
2017-12-16T02:13:04.351Z,94.50
2017-12-16T02:15:32.638Z,98.10
2017-12-16T02:18:00.169Z,97.53
2017-12-16T02:20:28.503Z,90.32
2017-12-16T02:22:56.825Z,101.60
2017-12-16T02:25:24.326Z,88.62
2017-12-16T02:27:51.818Z,103.35
2017-12-16T02:30:19.351Z,103.55
2017-12-16T02:32:46.844Z,97.03
2017-12-16T02:35:14.349Z,102.12
2017-12-16T02:37:41.850Z,104.22
2017-12-16T02:40:09.386Z,102.35
2017-12-16T02:42:43.611Z,115.65
2017-12-16T02:45:11.143Z,109.57
2017-12-16T02:47:38.709Z,121.75
2017-12-16T02:50:06.224Z,101.03
2017-12-16T02:52:37.489Z,100.10
2017-12-16T02:55:05.043Z,102.62
2017-12-16T02:57:33.343Z,109.20
2017-12-16T03:00:17.315Z,112.88
2017-12-16T03:02:44.832Z,110.55
2017-12-16T03:05:19.092Z,129.32
2017-12-16T03:08:05.915Z,99.35
2017-12-16T03:10:43.588Z,121.57
2017-12-16T03:13:11.058Z,106.78
2017-12-16T03:15:38.605Z,101.07
2017-12-16T03:18:06.099Z,113.90
2017-12-16T03:20:33.599Z,122.10
2017-12-16T03:23:01.076Z,133.05
2017-12-16T03:25:28.594Z,144.85
2017-12-16T03:27:57.018Z,112.30
2017-12-16T03:30:24.560Z,129.52
2017-12-16T03:32:52.090Z,117.60
2017-12-16T03:35:20.342Z,102.65
2017-12-16T03:37:47.825Z,111.40
2017-12-16T03:40:16.296Z,124.20
2017-12-16T03:42:43.822Z,113.15
2017-12-16T03:45:11.311Z,124.53
2017-12-16T03:47:52.369Z,124.90
2017-12-16T03:53:27.879Z,133.27
2017-12-16T03:56:14.728Z,128.95
2017-12-16T03:58:42.226Z,121.72
2017-12-16T04:01:09.816Z,141.27
2017-12-16T04:03:37.299Z,115.03
2017-12-16T04:06:04.835Z,131.70
2017-12-16T04:08:32.335Z,167.85
2017-12-16T04:10:59.866Z,136.00
2017-12-16T04:13:27.373Z,140.23
2017-12-16T04:15:54.991Z,136.35
2017-12-16T04:18:22.550Z,110.55
2017-12-16T04:20:50.127Z,140.48
2017-12-16T04:23:17.682Z,145.65
2017-12-16T04:25:45.286Z,127.40
2017-12-16T04:28:21.026Z,128.40
2017-12-16T04:30:48.527Z,120.62
2017-12-16T04:33:16.050Z,126.32
2017-12-16T04:35:43.534Z,121.70
2017-12-16T04:38:12.132Z,97.45
2017-12-16T04:40:39.682Z,90.20
2017-12-16T04:43:07.270Z,95.18
2017-12-16T04:45:34.861Z,98.65
2017-12-16T04:48:02.338Z,114.60
2017-12-16T04:50:36.456Z,107.03
2017-12-16T04:53:04.717Z,97.78
2017-12-16T04:55:32.242Z,113.00
2017-12-16T04:57:59.787Z,89.75
2017-12-16T05:00:27.337Z,89.40
2017-12-16T05:02:55.623Z,90.25
2017-12-16T05:05:23.134Z,90.78
2017-12-16T05:07:51.413Z,92.95
2017-12-16T05:10:19.708Z,84.53
2017-12-16T05:12:58.947Z,87.25
2017-12-16T05:15:26.503Z,82.07
2017-12-16T05:17:54.038Z,72.05
2017-12-16T05:20:21.610Z,92.10
2017-12-16T05:22:49.994Z,92.28
2017-12-16T05:25:17.505Z,80.30
2017-12-16T05:27:53.363Z,93.00
2017-12-16T05:30:20.853Z,66.90
2017-12-16T05:32:49.140Z,74.10
2017-12-16T05:35:17.421Z,84.32
2017-12-16T05:37:44.942Z,67.03
2017-12-16T05:40:12.465Z,80.15
2017-12-16T05:42:40.009Z,65.00
2017-12-16T05:45:07.580Z,66.60
2017-12-16T05:47:35.101Z,60.60
2017-12-16T05:50:03.384Z,77.55
2017-12-16T05:52:31.711Z,60.95
2017-12-16T05:54:59.195Z,54.22
2017-12-16T05:57:26.727Z,48.30
2017-12-16T05:59:54.268Z,39.20
2017-12-16T06:02:21.757Z,28.40
2017-12-16T06:04:49.268Z,23.92
2017-12-16T06:07:16.777Z,24.08
2017-12-16T06:09:44.305Z,19.52
2017-12-16T06:12:11.795Z,22.52
2017-12-16T06:14:39.320Z,17.27
2017-12-16T06:17:07.973Z,19.58
2017-12-16T06:19:37.559Z,21.83
2017-12-16T06:31:00.040Z,19.60
2017-12-16T06:45:36.583Z,25.92
2017-12-16T06:48:21.434Z,28.00
2017-12-16T06:50:49.089Z,18.30
2017-12-16T06:56:13.023Z,22.73
2017-12-16T07:13:50.512Z,29.35
2017-12-16T07:19:31.645Z,23.55
2017-12-16T07:27:44.063Z,25.27
2017-12-16T07:39:20.457Z,23.08
2017-12-16T07:41:59.401Z,27.50
2017-12-16T09:06:20.057Z,14.82
2017-12-16T09:08:48.607Z,5.90
2017-12-16T09:11:27.250Z,7.35
2017-12-16T09:13:54.865Z,5.12
2017-12-16T09:16:22.473Z,8.73
2017-12-16T09:21:45.821Z,6.15
2017-12-16T09:24:16.452Z,7.43
2017-12-16T09:26:43.945Z,7.80
2017-12-16T09:29:11.481Z,10.50
2017-12-16T09:31:38.971Z,5.72
2017-12-16T09:34:06.479Z,9.93
2017-12-16T09:36:34.015Z,9.40
2017-12-16T09:39:01.504Z,6.93
2017-12-16T09:41:29.006Z,8.65
2017-12-16T09:43:56.488Z,7.70
2017-12-16T09:46:23.991Z,12.75
2017-12-16T09:48:51.500Z,10.57
2017-12-16T09:51:19.798Z,7.43
2017-12-16T09:53:47.333Z,5.45
2017-12-16T09:56:14.945Z,9.45
2017-12-16T09:58:42.456Z,10.45
2017-12-16T10:01:09.977Z,12.18
2017-12-16T10:03:37.507Z,7.97
2017-12-16T10:06:04.975Z,5.62
2017-12-16T10:08:32.451Z,6.30
2017-12-16T10:10:59.963Z,8.50
2017-12-16T10:13:28.227Z,12.48
2017-12-16T10:15:56.514Z,8.73
2017-12-16T10:18:24.784Z,6.25
2017-12-16T10:20:53.082Z,9.90
2017-12-16T10:23:20.627Z,10.68
2017-12-16T10:25:48.878Z,6.75
2017-12-16T10:28:16.354Z,4.72
2017-12-16T10:30:44.613Z,5.53
2017-12-16T10:33:12.107Z,4.28
2017-12-16T10:35:39.662Z,3.80
2017-12-16T10:38:07.196Z,6.43
2017-12-16T10:40:34.770Z,5.18
2017-12-16T10:43:03.027Z,8.23
2017-12-16T10:45:30.627Z,4.65
2017-12-16T10:47:58.236Z,8.63
2017-12-16T10:50:25.792Z,7.62
2017-12-16T10:52:53.340Z,10.90
2017-12-16T10:55:20.935Z,8.43
2017-12-16T10:57:48.495Z,10.32
2017-12-16T11:00:18.945Z,5.25
2017-12-16T11:02:47.222Z,6.95
2017-12-16T11:05:14.771Z,6.55
2017-12-16T11:07:42.334Z,11.05
2017-12-16T11:10:09.851Z,7.03
2017-12-16T11:12:43.381Z,5.72
2017-12-16T11:15:11.663Z,7.43
2017-12-16T11:17:40.779Z,9.93
2017-12-16T11:20:08.294Z,5.00
2017-12-16T11:22:35.792Z,4.87
2017-12-16T11:25:03.303Z,7.50
2017-12-16T11:27:30.793Z,3.05
2017-12-16T11:29:59.230Z,6.70
2017-12-16T11:32:26.707Z,5.03
2017-12-16T11:34:54.225Z,3.15
2017-12-16T11:37:21.678Z,10.43
2017-12-16T11:39:49.202Z,8.30
2017-12-16T11:42:16.735Z,5.47
2017-12-16T11:44:44.225Z,5.85
2017-12-16T11:47:12.511Z,7.03
2017-12-16T11:49:40.016Z,10.05
2017-12-16T11:52:07.547Z,6.78
2017-12-16T11:54:35.037Z,9.32
2017-12-16T11:57:02.537Z,4.85
2017-12-16T11:59:30.819Z,5.15
2017-12-16T12:01:58.332Z,4.82
2017-12-16T12:04:25.818Z,6.30
2017-12-16T12:06:54.098Z,4.62
2017-12-16T12:09:22.388Z,5.43
2017-12-16T12:11:50.658Z,7.45
2017-12-16T12:14:18.922Z,5.35
2017-12-16T12:16:46.378Z,6.18
2017-12-16T12:19:13.867Z,4.62
2017-12-16T12:21:41.342Z,8.02
2017-12-16T12:24:08.839Z,6.50
2017-12-16T12:26:36.341Z,6.97
2017-12-16T12:29:03.851Z,4.95
2017-12-16T12:31:31.327Z,9.05
2017-12-16T12:33:58.792Z,8.00
2017-12-16T12:36:27.059Z,7.30
2017-12-16T12:38:54.563Z,9.98
2017-12-16T12:41:22.058Z,9.88
2017-12-16T12:43:49.550Z,8.35
2017-12-16T12:46:17.811Z,7.03
2017-12-16T12:48:45.303Z,8.27
2017-12-16T12:51:12.801Z,5.60
2017-12-16T12:53:40.382Z,8.80
2017-12-16T12:56:07.875Z,4.20
2017-12-16T12:58:35.362Z,2.75
2017-12-16T13:01:02.865Z,6.70
2017-12-16T13:03:30.342Z,7.37
2017-12-16T13:05:57.867Z,7.40
2017-12-16T13:08:25.358Z,6.75
2017-12-16T13:10:52.898Z,7.43
2017-12-16T13:13:21.145Z,4.97
2017-12-16T13:15:48.650Z,7.82
2017-12-16T13:18:16.212Z,4.43
2017-12-16T13:20:43.726Z,5.28
2017-12-16T13:23:11.227Z,4.22
2017-12-16T13:25:38.720Z,4.68
2017-12-16T13:28:06.249Z,6.35
2017-12-16T13:30:33.758Z,5.07
2017-12-16T13:33:01.257Z,3.65
2017-12-16T13:35:28.731Z,5.00
2017-12-16T13:37:56.245Z,2.47
2017-12-16T13:40:23.784Z,6.62
2017-12-16T13:42:51.263Z,1.95
2017-12-16T13:45:18.759Z,4.87
2017-12-16T13:47:46.273Z,2.87
2017-12-16T13:50:13.783Z,5.18
2017-12-16T13:52:41.306Z,6.97
2017-12-16T13:55:09.464Z,4.43
2017-12-16T13:57:36.961Z,5.35
2017-12-16T14:00:04.456Z,4.62
2017-12-16T14:02:31.959Z,6.32
2017-12-16T14:04:59.494Z,1.23
2017-12-16T14:07:26.983Z,6.75
2017-12-16T14:09:55.242Z,3.50
2017-12-16T14:12:22.793Z,5.00
2017-12-16T14:14:53.910Z,4.12
2017-12-16T14:17:21.496Z,2.58
2017-12-16T14:19:49.089Z,4.05
2017-12-16T14:22:16.667Z,4.85
2017-12-16T14:24:44.276Z,1.02
2017-12-16T14:27:11.925Z,4.10
2017-12-16T14:29:39.531Z,2.67
2017-12-16T14:32:10.280Z,2.28
2017-12-16T14:34:37.926Z,4.05
2017-12-16T14:37:10.750Z,4.50
2017-12-16T14:39:39.794Z,5.85
2017-12-16T14:42:07.332Z,4.60
2017-12-16T14:44:35.111Z,5.20
2017-12-16T14:47:02.684Z,5.28
2017-12-16T14:49:30.974Z,4.65
2017-12-16T14:51:58.517Z,5.15
2017-12-16T14:54:26.795Z,3.72
2017-12-16T14:56:55.063Z,7.18
2017-12-16T14:59:22.577Z,5.22
2017-12-16T15:01:50.107Z,2.58
2017-12-16T15:04:17.629Z,5.97
2017-12-16T15:06:45.098Z,4.78
2017-12-16T15:09:13.349Z,4.10
2017-12-16T15:11:40.860Z,6.43
2017-12-16T15:14:08.415Z,4.87
2017-12-16T15:16:35.936Z,2.20
2017-12-16T15:19:03.528Z,5.97
2017-12-16T15:21:32.326Z,5.47
2017-12-16T15:23:59.918Z,4.72
2017-12-16T15:26:27.473Z,7.72
2017-12-16T15:28:55.011Z,7.12
2017-12-16T15:31:22.561Z,2.70
2017-12-16T15:33:50.214Z,3.15
2017-12-16T15:36:18.488Z,7.03
2017-12-16T15:38:47.493Z,5.37
2017-12-16T15:41:15.039Z,3.50
2017-12-16T15:43:43.364Z,4.85
2017-12-16T15:46:10.924Z,3.42
2017-12-16T15:48:38.493Z,7.60
2017-12-16T15:51:12.399Z,4.05
2017-12-16T15:53:39.898Z,5.78
2017-12-16T15:56:07.391Z,6.03
2017-12-16T15:58:34.886Z,5.60
2017-12-16T16:01:02.391Z,5.07
2017-12-16T16:03:29.926Z,4.50
2017-12-16T16:05:58.296Z,2.75
2017-12-16T16:08:25.828Z,8.85
2017-12-16T16:10:53.387Z,6.28
2017-12-16T16:15:34.893Z,3.50
2017-12-16T16:18:02.413Z,5.50
2017-12-16T16:20:29.944Z,5.28
2017-12-16T16:22:57.496Z,4.43
2017-12-16T16:25:25.840Z,3.35
2017-12-16T16:27:53.402Z,9.10
2017-12-16T16:30:20.956Z,7.25
2017-12-16T16:32:48.515Z,5.22
2017-12-16T16:35:16.035Z,5.35
2017-12-16T16:37:43.566Z,5.32
2017-12-16T16:40:11.104Z,3.30
2017-12-16T16:42:38.619Z,6.80
2017-12-16T16:45:06.213Z,5.78
2017-12-16T16:47:33.754Z,4.10
2017-12-16T16:50:01.275Z,2.80
2017-12-16T16:52:29.555Z,5.22
2017-12-16T16:54:57.824Z,3.42
2017-12-16T16:57:25.342Z,3.33
2017-12-16T16:59:52.856Z,5.30
2017-12-16T17:02:21.149Z,3.58
2017-12-16T17:04:48.652Z,2.53
2017-12-16T17:07:16.149Z,4.12
2017-12-16T17:09:44.410Z,8.23
2017-12-16T17:12:11.927Z,6.68
2017-12-16T17:14:40.203Z,6.68
2017-12-16T17:17:07.794Z,4.90
2017-12-16T17:19:35.297Z,6.75
2017-12-16T17:22:02.822Z,4.32
2017-12-16T17:24:30.343Z,5.72
2017-12-16T17:26:57.848Z,4.10
2017-12-16T17:29:25.338Z,7.20
2017-12-16T17:31:52.819Z,5.72
2017-12-16T17:34:20.323Z,4.75
2017-12-16T17:36:48.589Z,4.28
2017-12-16T17:39:16.058Z,6.62
2017-12-16T17:41:44.307Z,5.45
2017-12-16T17:44:11.791Z,7.53
2017-12-16T17:46:40.053Z,9.55
2017-12-16T17:49:07.555Z,6.35
2017-12-16T17:51:35.058Z,5.87
2017-12-16T17:54:02.564Z,6.68
2017-12-16T17:56:30.030Z,7.37
2017-12-16T17:58:57.565Z,7.10
2017-12-16T18:01:25.846Z,9.15
2017-12-16T18:03:53.347Z,8.15
2017-12-16T18:06:20.810Z,6.90
2017-12-16T18:08:51.411Z,7.22
2017-12-16T18:11:18.909Z,5.82
2017-12-16T18:13:46.370Z,5.47
2017-12-16T18:16:13.869Z,8.10
2017-12-16T18:18:41.342Z,4.55
2017-12-16T18:21:16.027Z,7.10
2017-12-16T18:23:54.007Z,7.82
2017-12-16T18:26:21.497Z,6.15
2017-12-16T18:28:49.733Z,6.80
2017-12-16T18:31:17.209Z,4.10
2017-12-16T18:33:44.714Z,9.75
2017-12-16T18:36:12.209Z,6.65
2017-12-16T18:38:39.727Z,4.40
2017-12-16T18:41:07.206Z,6.65
2017-12-16T18:43:34.710Z,4.25
2017-12-16T18:46:02.203Z,6.68
2017-12-16T18:48:29.746Z,4.75
2017-12-16T18:51:04.131Z,8.60
2017-12-16T18:53:31.642Z,3.55
2017-12-16T18:55:59.945Z,5.75
2017-12-16T18:58:27.434Z,6.50
2017-12-16T19:00:54.938Z,7.68
2017-12-16T19:03:26.599Z,6.37
2017-12-16T19:05:54.085Z,6.03
2017-12-16T19:08:23.247Z,5.72
2017-12-16T19:10:50.782Z,5.25
2017-12-16T19:13:19.054Z,6.12
2017-12-16T19:15:46.561Z,5.78
2017-12-16T19:18:14.074Z,7.25
2017-12-16T19:20:41.580Z,6.65
2017-12-16T19:23:15.506Z,5.72
2017-12-16T19:25:43.018Z,6.07
2017-12-16T19:28:10.527Z,7.75
2017-12-16T19:30:38.031Z,7.70
2017-12-16T19:33:06.295Z,10.48
2017-12-16T19:35:34.551Z,13.35
2017-12-16T19:38:02.036Z,6.50
2017-12-16T19:40:30.308Z,6.78
2017-12-16T19:42:58.540Z,5.90
2017-12-16T19:45:26.039Z,11.57
2017-12-16T19:47:54.468Z,9.35
2017-12-16T19:50:21.950Z,4.55
2017-12-16T19:52:52.653Z,8.32
2017-12-16T19:55:20.144Z,7.97
2017-12-16T19:57:50.734Z,10.68
2017-12-16T20:00:18.275Z,9.10
2017-12-16T20:02:52.945Z,7.95
2017-12-16T20:05:23.592Z,5.62
2017-12-16T20:07:51.100Z,7.95
2017-12-16T20:10:18.586Z,5.43
2017-12-16T20:12:46.108Z,12.48
2017-12-16T20:15:14.425Z,4.25
2017-12-16T20:17:41.980Z,7.72
2017-12-16T20:20:09.543Z,5.25
2017-12-16T20:22:37.028Z,9.82
2017-12-16T20:25:04.557Z,13.00
2017-12-16T20:27:32.054Z,6.32
2017-12-16T20:29:59.571Z,11.05
2017-12-16T20:32:27.041Z,6.57
2017-12-16T20:34:54.567Z,8.10
2017-12-16T20:37:22.050Z,7.35
2017-12-16T20:39:49.535Z,7.70
2017-12-16T20:42:17.053Z,11.80
2017-12-16T20:44:44.574Z,12.57
2017-12-16T20:47:12.858Z,7.45
2017-12-16T20:49:41.111Z,8.63
2017-12-16T20:52:08.620Z,9.50
2017-12-16T20:54:36.110Z,5.55
2017-12-16T20:57:03.571Z,8.82
2017-12-16T20:59:31.114Z,8.13
2017-12-16T21:01:58.611Z,6.95
2017-12-16T21:04:26.117Z,10.40
2017-12-16T21:06:53.663Z,9.30
2017-12-16T21:09:21.141Z,10.93
2017-12-16T21:11:48.634Z,6.87
2017-12-16T21:14:16.174Z,11.10
2017-12-16T21:16:43.689Z,5.03
2017-12-16T21:19:11.175Z,3.20
2017-12-16T21:21:39.426Z,5.90
2017-12-16T21:24:06.928Z,4.03
2017-12-16T21:26:34.458Z,7.60
2017-12-16T21:29:01.977Z,3.90
2017-12-16T21:31:29.527Z,5.65
2017-12-16T21:33:57.016Z,7.45
2017-12-16T21:36:24.530Z,6.65
2017-12-16T21:38:52.061Z,5.70
2017-12-16T21:41:19.562Z,8.18
2017-12-16T21:43:47.071Z,4.85
2017-12-16T21:46:14.533Z,6.45
2017-12-16T21:48:42.037Z,6.93
2017-12-16T21:51:09.543Z,6.82
2017-12-16T21:53:37.078Z,7.68
2017-12-16T21:56:05.240Z,6.68
2017-12-16T21:58:34.322Z,9.63
2017-12-16T22:01:02.445Z,6.28
2017-12-16T22:03:30.796Z,11.95
2017-12-16T22:05:58.257Z,7.18
2017-12-16T22:08:25.746Z,7.32
2017-12-16T22:10:53.321Z,6.78
2017-12-16T22:13:23.803Z,6.53
2017-12-16T22:15:51.306Z,12.55
2017-12-16T22:18:18.774Z,6.60
2017-12-16T22:20:46.274Z,8.82
2017-12-16T22:23:19.492Z,7.37
2017-12-16T22:25:46.961Z,6.35
2017-12-16T22:28:14.455Z,8.50
2017-12-16T22:30:41.964Z,7.40
2017-12-16T22:33:09.503Z,13.65
2017-12-16T22:35:37.019Z,8.05
2017-12-16T22:38:04.493Z,15.23
2017-12-16T22:40:32.010Z,11.35
2017-12-16T22:42:59.523Z,11.73
2017-12-16T22:45:27.793Z,11.05
2017-12-16T22:47:55.262Z,9.02
2017-12-16T22:50:22.771Z,14.77
2017-12-16T22:52:50.290Z,10.02
2017-12-16T22:55:17.745Z,10.93
2017-12-16T22:57:45.278Z,8.90
2017-12-16T23:00:18.697Z,10.68
2017-12-16T23:02:46.269Z,11.85
2017-12-16T23:05:13.773Z,12.85
2017-12-16T23:07:41.259Z,7.82
2017-12-16T23:10:09.607Z,16.87
2017-12-16T23:12:37.103Z,10.52
2017-12-16T23:15:05.355Z,9.63
2017-12-16T23:17:32.860Z,15.98
2017-12-16T23:20:00.362Z,8.35
2017-12-16T23:22:27.846Z,9.45
2017-12-16T23:24:56.083Z,9.20
2017-12-16T23:27:29.598Z,7.37
2017-12-16T23:29:57.093Z,11.95
2017-12-16T23:32:24.571Z,16.05
2017-12-16T23:34:52.067Z,12.88
2017-12-16T23:37:19.563Z,13.88
2017-12-16T23:39:47.065Z,6.95
2017-12-16T23:42:14.557Z,12.77
2017-12-16T23:44:42.039Z,12.98
2017-12-16T23:47:10.318Z,8.48
2017-12-16T23:49:38.584Z,8.23
2017-12-16T23:52:06.825Z,8.55
2017-12-16T23:54:34.334Z,11.73
2017-12-16T23:57:01.874Z,11.73
2017-12-16T23:59:30.145Z,10.18
